Terminal Aerodrome Forecast
Issued by NWS

Current Version | Previous Version | Graphics & Text | Print | Product List | Glossary On
Versions: 1 2 3 4 5 6 7 8 9 10 11 12
000
FTUS41 KRNK 110520
TAFLWB
TAF
KLWB 110520Z 1106/1206 25008KT P6SM BKN045
     FM111200 27006KT P6SM FEW250
     FM112200 20004KT P6SM SCT150
     FM120400 VRB03KT P6SM BKN150 WS020/24030KT=

USA.gov is the U.S. government's official web portal to all federal, state and local government web resources and services.